Time;durP1;ratioP1;P1;durP2;ratioP2;P2;SDS_P1;SDS_P2;PMS_P1;PMS_P2;Temp;Humidity;BMP_temperature;BMP_pressure;BME280_temperature;BME280_humidity;BME280_pressure;Samples;Min_cycle;Max_cycle;Signal;HPM_P1;HPM_P2
2022/02/09 00:00:51;;;;;;;10.73;4.73;;;;;;;14.06;45.58;101433.63;5016578;28;20128;-78
2022/02/09 00:03:22;;;;;;;7.77;4.57;;;;;;;13.98;45.90;101426.63;5007374;28;20080;-77
2022/02/09 00:06:02;;;;;;;7.00;3.90;;;;;;;13.91;46.00;101434.50;5026834;28;20089;-73
2022/02/09 00:08:29;;;;;;;11.93;5.60;;;;;;;13.51;46.16;101376.38;5024873;28;20045;-77
2022/02/09 00:11:02;;;;;;;6.93;3.53;;;;;;;13.46;46.27;101371.59;5022603;28;20451;-85
2022/02/09 00:21:34;;;;;;;5.97;3.90;;;;;;;13.67;46.68;101430.53;5029968;28;20100;-77
2022/02/09 01:55:26;;;;;;;6.20;3.47;;;;;;;12.42;49.55;101373.56;5024309;28;20081;-72
2022/02/09 01:56:55;;;;;;;7.17;4.57;;;;;;;12.19;50.32;101357.19;5027810;28;20085;-73
2022/02/09 01:59:22;;;;;;;9.23;5.37;;;;;;;12.25;50.44;101381.31;5029509;28;20053;-75
2022/02/09 02:01:49;;;;;;;7.87;4.63;;;;;;;12.42;50.35;101415.56;5025904;28;20120;-74
2022/02/09 02:04:16;;;;;;;6.73;3.97;;;;;;;12.47;50.16;101421.19;5034522;28;20132;-76
2022/02/09 02:06:45;;;;;;;15.00;5.40;;;;;;;12.11;50.01;101364.16;5033517;28;20581;-80
2022/02/09 02:09:13;;;;;;;7.25;3.42;;;;;;;12.30;50.58;101400.94;5041110;28;20049;-77
2022/02/09 02:14:48;;;;;;;4.73;3.33;;;;;;;12.22;50.38;101395.84;5039719;28;20087;-78
2022/02/09 02:17:28;;;;;;;;;;;;;;;12.14;51.05;101414.00;5031420;28;20103;-75
2022/02/09 02:20:00;;;;;;;8.70;4.53;;;;;;;12.30;50.80;101420.53;5024325;28;20015;-75
2022/02/09 02:25:41;;;;;;;3.43;2.67;;;;;;;12.20;51.05;101412.06;5024047;28;20132;-75
2022/02/09 03:20:41;;;;;;;9.77;4.37;;;;;;;11.86;51.56;101409.59;5026986;28;20480;-79
2022/02/09 03:23:27;;;;;;;3.87;2.80;;;;;;;11.62;51.73;101376.38;5015129;28;20524;-80
2022/02/09 03:50:40;;;;;;;5.90;3.17;;;;;;;11.64;52.25;101387.28;5019867;28;20128;-83
2022/02/09 03:53:24;;;;;;;6.10;3.50;;;;;;;11.42;52.07;101352.97;5019197;28;20129;-82
2022/02/09 03:58:18;;;;;;;7.03;4.47;;;;;;;11.40;52.38;101372.81;5027208;28;20128;-77
2022/02/09 04:00:46;;;;;;;6.23;3.37;;;;;;;11.34;52.37;101366.34;5033034;28;20029;-80
2022/02/09 04:03:18;;;;;;;5.90;3.33;;;;;;;11.29;52.29;101335.53;5046042;28;20040;-83
2022/02/09 04:05:47;;;;;;;15.70;4.93;;;;;;;11.43;52.45;101360.28;5045639;28;20052;-81
2022/02/09 04:08:17;;;;;;;20.80;2.95;;;;;;;11.36;52.50;101357.69;5040076;28;20068;-82
2022/02/09 04:10:51;;;;;;;8.05;4.53;;;;;;;11.46;52.79;101382.97;5039678;28;20087;-81
2022/02/09 04:13:59;;;;;;;6.10;2.87;;;;;;;11.46;52.51;101379.31;5022298;28;20115;-80
2022/02/09 04:16:34;;;;;;;7.63;3.53;;;;;;;11.25;52.97;101373.53;5018913;28;20128;-78
2022/02/09 04:19:47;;;;;;;4.47;3.15;;;;;;;11.23;53.19;101364.56;5022625;28;20176;-79
2022/02/09 04:51:33;;;;;;;7.75;4.38;;;;;;;11.01;52.97;101361.84;5010895;28;20144;-79
2022/02/09 04:56:45;;;;;;;6.40;4.43;;;;;;;11.03;53.34;101376.38;5021336;28;20472;-75
2022/02/09 05:24:03;;;;;;;4.97;3.03;;;;;;;10.94;53.19;101375.19;5010522;28;20100;-79
2022/02/09 05:26:50;;;;;;;7.30;4.07;;;;;;;11.12;53.30;101408.34;5024418;28;20053;-75
2022/02/09 05:29:18;;;;;;;12.40;4.20;;;;;;;11.01;53.32;101395.38;5025610;28;20045;-76
2022/02/09 05:31:45;;;;;;;10.30;5.03;;;;;;;11.08;53.10;101414.75;5028875;28;20433;-76
2022/02/09 05:34:12;;;;;;;8.33;4.50;;;;;;;11.09;53.16;101394.91;5020555;28;20050;-75
2022/02/09 05:36:39;;;;;;;13.33;4.00;;;;;;;11.07;53.56;101405.50;5023518;28;20144;-73
2022/02/09 05:39:06;;;;;;;7.33;2.63;;;;;;;11.00;53.45;101409.59;5024678;28;20488;-75
2022/02/09 05:41:41;;;;;;;6.17;3.23;;;;;;;10.99;53.63;101403.19;5023924;28;20093;-75
2022/02/09 05:44:09;;;;;;;8.07;4.43;;;;;;;10.98;53.58;101407.09;5027867;28;20104;-75
2022/02/09 05:47:07;;;;;;;2.17;1.80;;;;;;;10.93;53.79;101409.81;5028361;28;20053;-76
2022/02/09 05:52:06;;;;;;;6.68;3.92;;;;;;;10.90;53.66;101404.75;5022931;28;20332;-75
2022/02/09 05:57:54;;;;;;;4.60;2.73;;;;;;;10.94;53.50;101417.09;5005374;28;20062;-81
2022/02/09 06:00:21;;;;;;;5.97;3.53;;;;;;;10.85;54.00;101416.72;5022721;28;20095;-78
2022/02/09 06:02:48;;;;;;;2.40;1.97;;;;;;;10.80;54.16;101421.38;5033140;28;20053;-73
2022/02/09 06:05:16;;;;;;;2.07;1.87;;;;;;;10.79;54.11;101419.72;5025654;28;20058;-78
2022/02/09 06:07:48;;;;;;;3.17;2.70;;;;;;;10.83;53.85;101420.88;5022437;28;20041;-81
2022/02/09 06:10:19;;;;;;;11.40;5.00;;;;;;;10.77;54.11;101416.31;5023339;28;20049;-80
2022/02/09 06:12:53;;;;;;;5.80;3.27;;;;;;;10.76;54.25;101431.41;5021432;28;20073;-77
2022/02/09 06:20:35;;;;;;;5.33;3.37;;;;;;;10.76;54.11;101426.66;5017649;28;20103;-75
2022/02/09 06:23:02;;;;;;;5.13;2.80;;;;;;;10.77;54.09;101433.94;5024924;28;20451;-78
2022/02/09 06:25:30;;;;;;;4.60;2.73;;;;;;;10.76;54.03;101428.59;5020874;28;20058;-77
2022/02/09 06:27:57;;;;;;;5.00;3.43;;;;;;;10.71;53.71;101409.00;5019321;28;20053;-76
2022/02/09 06:30:23;;;;;;;3.73;3.10;;;;;;;10.76;54.08;101432.25;5019321;28;20077;-82
2022/02/09 06:32:53;;;;;;;6.70;2.00;;;;;;;10.88;53.63;101440.50;5026116;28;20049;-80
2022/02/09 06:35:20;;;;;;;7.00;2.63;;;;;;;10.58;54.24;101413.88;5030455;28;20045;-79
2022/02/09 06:37:48;;;;;;;7.73;2.77;;;;;;;10.80;53.92;101433.44;5044466;28;20030;-77
2022/02/09 06:40:17;;;;;;;8.73;4.40;;;;;;;10.77;53.82;101433.06;5043933;28;20084;-80
2022/02/09 06:42:44;;;;;;;5.23;3.37;;;;;;;10.71;54.27;101436.94;5037103;28;20046;-76
2022/02/09 06:45:23;;;;;;;3.87;2.93;;;;;;;10.72;54.27;101442.25;5033347;28;20104;-74
2022/02/09 06:47:50;;;;;;;2.45;1.85;;;;;;;10.59;54.70;101437.03;5016695;28;20049;-76
2022/02/09 06:50:29;;;;;;;7.53;4.47;;;;;;;10.55;54.74;101435.88;5023571;28;20131;-73
2022/02/09 06:53:03;;;;;;;5.03;2.53;;;;;;;10.50;54.93;101436.66;5023469;28;20049;-72
2022/02/09 06:55:32;;;;;;;5.73;3.00;;;;;;;10.41;55.07;101435.41;5025585;28;20046;-72
2022/02/09 06:58:03;;;;;;;2.10;1.93;;;;;;;10.44;55.24;101443.28;5019693;28;20053;-71
2022/02/09 07:00:34;;;;;;;7.63;4.17;;;;;;;10.44;55.06;101440.50;5019530;28;20133;-72
2022/02/09 07:03:02;;;;;;;6.65;4.20;;;;;;;10.42;55.10;101440.72;5017010;28;22771;-80
2022/02/09 07:05:28;;;;;;;3.33;2.20;;;;;;;10.39;55.12;101444.06;5021060;28;20057;-76
2022/02/09 07:07:55;;;;;;;5.23;3.93;;;;;;;10.34;55.17;101437.56;5023011;28;20424;-78
2022/02/09 07:10:22;;;;;;;10.50;4.83;;;;;;;10.31;55.07;101435.28;5020268;28;21693;-69
2022/02/09 07:12:49;;;;;;;7.37;4.93;;;;;;;10.48;54.88;101452.81;5018935;28;20057;-70
2022/02/09 07:15:25;;;;;;;3.93;2.40;;;;;;;10.39;55.20;101457.16;5023386;28;20061;-69
2022/02/09 07:17:53;;;;;;;9.30;4.10;;;;;;;10.09;55.24;101396.13;5025577;28;20049;-69
2022/02/09 07:20:25;;;;;;;6.77;5.63;;;;;;;10.33;55.23;101449.84;5026990;28;20497;-70
2022/02/09 07:22:55;;;;;;;13.50;5.20;;;;;;;10.21;55.05;101425.59;5016746;28;20095;-69
2022/02/09 07:25:30;;;;;;;4.80;3.72;;;;;;;10.37;55.18;101463.00;5028060;28;20083;-70
2022/02/09 07:28:01;;;;;;;7.20;3.30;;;;;;;10.21;55.58;101441.50;5019022;28;20566;-70
2022/02/09 07:30:29;;;;;;;4.33;2.90;;;;;;;10.13;55.54;101442.81;5021734;28;20525;-69
2022/02/09 07:32:59;;;;;;;5.30;3.47;;;;;;;10.06;55.43;101418.97;5023298;28;20103;-70
2022/02/09 07:35:26;;;;;;;8.25;3.00;;;;;;;10.13;55.82;101451.19;5023570;28;20052;-71
2022/02/09 07:37:53;;;;;;;7.67;3.83;;;;;;;10.04;55.63;101435.97;5019563;28;20053;-71
2022/02/09 07:40:20;;;;;;;3.23;2.57;;;;;;;10.23;55.71;101460.81;5021307;28;20141;-71
2022/02/09 07:42:57;;;;;;;7.60;5.03;;;;;;;10.27;55.46;101453.66;5028387;28;20077;-71
2022/02/09 07:48:13;;;;;;;6.13;3.80;;;;;;;10.31;55.39;101472.41;5021110;28;20084;-70
2022/02/09 07:50:47;;;;;;;5.60;2.70;;;;;;;10.29;55.57;101477.41;5014682;28;20111;-70
2022/02/09 07:53:24;;;;;;;5.17;3.00;;;;;;;10.27;55.67;101475.97;5016432;28;20294;-74
2022/02/09 07:55:51;;;;;;;7.73;3.23;;;;;;;10.26;55.69;101482.69;5024078;28;20463;-70
2022/02/09 07:58:20;;;;;;;3.70;3.10;;;;;;;10.37;55.33;101487.31;5021573;28;20050;-67
2022/02/09 08:00:47;;;;;;;8.50;3.53;;;;;;;10.41;55.31;101486.53;5021493;28;20140;-67
2022/02/09 08:03:14;;;;;;;4.83;3.73;;;;;;;10.47;55.25;101484.66;5018020;28;20076;-69
2022/02/09 08:05:45;;;;;;;3.40;2.07;;;;;;;10.63;54.92;101494.94;5021775;28;20046;-68
2022/02/09 08:08:12;;;;;;;8.67;4.33;;;;;;;10.73;54.26;101482.19;5026602;28;20128;-67
2022/02/09 08:26:51;;;;;;;4.97;3.50;;;;;;;12.18;51.16;101524.34;5018393;28;20049;-68
2022/02/09 08:29:30;;;;;;;6.13;3.93;;;;;;;12.30;50.60;101525.00;5022133;28;20073;-67
2022/02/09 08:34:30;;;;;;;13.07;4.53;;;;;;;12.66;49.85;101513.22;5025321;28;20087;-70
2022/02/09 08:36:57;;;;;;;14.67;5.37;;;;;;;12.94;49.28;101538.03;5018649;28;20112;-67
2022/02/09 08:39:24;;;;;;;5.03;3.43;;;;;;;12.99;48.89;101521.25;5018019;28;20061;-68
2022/02/09 08:41:53;;;;;;;5.00;4.03;;;;;;;13.18;48.50;101538.41;5019858;28;20581;-67
2022/02/09 08:44:20;;;;;;;5.40;3.13;;;;;;;13.34;48.10;101527.31;5020689;28;20046;-67
2022/02/09 08:46:47;;;;;;;6.53;3.53;;;;;;;13.39;47.80;101536.56;5018006;28;20060;-68
2022/02/09 08:49:14;;;;;;;6.80;4.67;;;;;;;13.51;47.48;101533.53;5024451;28;20045;-67
2022/02/09 08:51:41;;;;;;;5.67;3.37;;;;;;;13.61;47.21;101518.69;5029808;28;20076;-67
2022/02/09 08:54:09;;;;;;;10.43;5.60;;;;;;;14.10;46.66;101535.00;5042963;28;20053;-68
2022/02/09 08:56:38;;;;;;;4.93;3.47;;;;;;;14.35;46.10;101537.81;5052747;28;20041;-66
2022/02/09 08:59:07;;;;;;;7.17;4.17;;;;;;;14.54;45.56;101537.28;5050019;28;20046;-68
2022/02/09 09:01:52;;;;;;;6.33;3.90;;;;;;;14.75;45.10;101543.69;5044434;28;20056;-67
2022/02/09 09:04:23;;;;;;;6.77;4.10;;;;;;;14.92;44.72;101549.84;5077178;28;20080;-67
2022/02/09 09:06:57;;;;;;;6.03;3.60;;;;;;;15.05;44.06;101551.22;5044877;28;20041;-68
2022/02/09 09:15:13;;;;;;;2.80;2.37;;;;;;;15.84;42.70;101558.72;5051299;28;20041;-68
2022/02/09 09:59:23;;;;;;;8.23;4.13;;;;;;;18.18;37.77;101554.41;5030051;28;20566;-68
2022/02/09 10:05:30;;;;;;;7.15;4.00;;;;;;;18.51;37.25;101568.59;5016367;28;20427;-69
2022/02/09 10:35:07;;;;;;;6.53;5.13;;;;;;;19.52;36.39;101576.28;5025344;28;20067;-68
2022/02/09 10:37:34;;;;;;;9.27;5.75;;;;;;;19.47;36.06;101575.53;5025518;28;20072;-69
2022/02/09 10:40:08;;;;;;;11.23;5.85;;;;;;;19.88;35.79;101584.00;5024657;28;20081;-69
2022/02/09 10:42:44;;;;;;;9.10;4.95;;;;;;;19.99;35.45;101570.44;5026456;28;20049;-68
2022/02/09 10:45:33;;;;;;;12.45;7.40;;;;;;;20.06;35.17;101551.81;5037999;28;20107;-70
2022/02/09 10:48:05;;;;;;;19.70;10.13;;;;;;;20.51;34.75;101563.22;5030470;28;20065;-68
2022/02/09 10:50:38;;;;;;;18.73;7.15;;;;;;;21.11;34.66;101592.28;5024034;28;20091;-69
2022/02/09 10:53:11;;;;;;;11.48;6.00;;;;;;;21.53;33.80;101576.59;5019667;28;20079;-67
2022/02/09 10:55:46;;;;;;;10.23;5.93;;;;;;;21.64;33.43;101551.53;5021740;28;20073;-68
2022/02/09 10:58:15;;;;;;;9.13;5.90;;;;;;;21.92;33.08;101589.91;5017241;28;20593;-68
2022/02/09 11:00:44;;;;;;;9.40;6.15;;;;;;;22.38;33.14;101567.66;5023119;28;20073;-69
2022/02/09 11:03:27;;;;;;;13.43;6.93;;;;;;;22.70;32.67;101546.31;5034003;28;20513;-69
2022/02/09 11:05:55;;;;;;;11.25;6.38;;;;;;;23.20;32.09;101587.59;5024404;28;20126;-69
2022/02/09 11:08:22;;;;;;;10.48;6.60;;;;;;;23.35;32.06;101570.78;5018259;28;20133;-69
2022/02/09 11:10:54;;;;;;;13.65;6.45;;;;;;;23.86;31.60;101585.06;5025885;28;20046;-68
2022/02/09 11:13:21;;;;;;;8.20;5.72;;;;;;;23.88;30.82;101575.00;5024708;28;20056;-68
2022/02/09 11:15:49;;;;;;;16.13;7.20;;;;;;;24.47;30.68;101604.59;5023674;28;20111;-69
2022/02/09 11:18:21;;;;;;;11.10;6.10;;;;;;;25.18;30.63;101600.69;5021042;28;20464;-69
2022/02/09 11:21:05;;;;;;;8.75;5.20;;;;;;;25.49;29.90;101597.25;5017280;28;20089;-68
2022/02/09 11:23:48;;;;;;;9.60;6.13;;;;;;;25.89;29.73;101599.44;5025725;28;20118;-68
2022/02/09 11:26:41;;;;;;;7.00;5.47;;;;;;;26.27;29.48;101601.00;5025060;28;20397;-68
2022/02/09 11:29:32;;;;;;;8.93;5.28;;;;;;;26.71;28.97;101596.22;5022835;28;20136;-69
2022/02/09 11:32:29;;;;;;;12.95;5.78;;;;;;;27.23;28.27;101585.78;5019773;28;20528;-69
2022/02/09 11:37:42;;;;;;;9.00;5.43;;;;;;;28.16;27.51;101588.06;5024931;28;20053;-69
2022/02/09 11:40:30;;;;;;;8.43;5.63;;;;;;;28.05;26.76;101580.03;5030600;28;20099;-68
2022/02/09 11:51:24;;;;;;;7.22;5.28;;;;;;;28.16;25.31;101579.44;5022003;28;20090;-69
2022/02/09 11:59:50;;;;;;;9.27;5.25;;;;;;;29.52;24.03;101559.94;5018695;28;20096;-68
2022/02/09 12:19:25;;;;;;;6.57;4.47;;;;;;;31.35;20.82;101522.72;5017110;28;20065;-69
2022/02/09 12:21:59;;;;;;;7.60;4.88;;;;;;;31.62;20.21;101543.53;5016276;28;20077;-67
2022/02/09 12:24:28;;;;;;;6.13;4.22;;;;;;;31.90;20.26;101537.16;5017793;28;20062;-68
2022/02/09 12:27:08;;;;;;;9.18;4.97;;;;;;;31.91;20.40;101533.03;5024757;28;20076;-68
2022/02/09 12:29:39;;;;;;;;;;;;;;;32.59;20.84;101532.53;5021018;28;20046;-68
2022/02/09 12:32:14;;;;;;;9.20;5.13;;;;;;;32.93;19.96;101524.34;5026443;28;19968;-68
2022/02/09 12:34:44;;;;;;;8.73;4.93;;;;;;;33.51;19.53;101537.66;5024489;28;20136;-68
2022/02/09 12:37:16;;;;;;;8.45;5.00;;;;;;;34.06;19.20;101527.63;5025106;28;20057;-68
2022/02/09 12:39:55;;;;;;;8.75;5.53;;;;;;;34.06;18.63;101516.84;5024910;28;20045;-68
2022/02/09 12:42:28;;;;;;;9.55;5.35;;;;;;;34.05;18.88;101520.16;5019760;28;20083;-68
2022/02/09 12:45:13;;;;;;;9.55;4.97;;;;;;;33.80;18.82;101520.19;5021162;28;20054;-69
2022/02/09 12:47:44;;;;;;;10.43;5.13;;;;;;;33.83;18.58;101519.38;5020865;28;20067;-68
2022/02/09 12:50:14;;;;;;;11.43;5.05;;;;;;;33.93;18.86;101509.81;5026471;28;20465;-68
2022/02/09 12:52:45;;;;;;;9.88;5.07;;;;;;;33.78;18.73;101511.09;5021857;28;20096;-67
2022/02/09 12:55:16;;;;;;;7.57;4.38;;;;;;;34.27;18.55;101504.31;5026304;28;20073;-68
2022/02/09 12:57:50;;;;;;;12.43;4.80;;;;;;;34.60;18.28;101508.75;5016082;28;20062;-68
2022/02/09 13:00:27;;;;;;;13.43;4.35;;;;;;;33.96;18.16;101500.28;5025317;28;20059;-68
2022/02/09 13:02:57;;;;;;;8.00;4.70;;;;;;;33.72;18.34;101505.72;5026757;28;20049;-69
2022/02/09 13:05:26;;;;;;;13.77;4.22;;;;;;;34.00;18.27;101497.38;5030425;28;20136;-68
2022/02/09 13:07:58;;;;;;;10.10;4.50;;;;;;;34.15;18.36;101490.28;5026732;28;20459;-68
2022/02/09 13:10:37;;;;;;;9.07;5.20;;;;;;;33.95;18.02;101516.03;5020862;28;20133;-67
2022/02/09 13:13:17;;;;;;;7.93;3.97;;;;;;;33.97;18.09;101493.25;5023885;28;20109;-68
2022/02/09 13:52:10;;;;;;;8.95;3.28;;;;;;;25.93;24.60;101466.69;5020440;28;20095;-68
2022/02/09 14:49:31;;;;;;;9.85;4.75;;;;;;;21.51;32.44;101426.31;5018015;28;20148;-70
2022/02/09 14:52:01;;;;;;;9.57;3.35;;;;;;;21.42;32.74;101422.59;5018035;28;20070;-69
2022/02/09 14:57:19;;;;;;;11.00;2.95;;;;;;;21.25;33.07;101419.72;5020564;28;20073;-69
2022/02/09 14:59:53;;;;;;;13.70;4.07;;;;;;;21.24;33.41;101429.41;5017779;28;20060;-69
2022/02/09 15:02:36;;;;;;;7.57;3.63;;;;;;;21.21;33.28;101432.91;5016678;28;20080;-69
2022/02/09 15:10:43;;;;;;;11.75;3.67;;;;;;;21.04;33.66;101417.50;5004717;28;20064;-69
2022/02/09 15:18:50;;;;;;;9.55;3.72;;;;;;;20.87;33.85;101396.75;5020806;28;20127;-70
2022/02/09 15:23:55;;;;;;;9.90;4.13;;;;;;;20.91;33.99;101418.47;5017035;28;20085;-68
2022/02/09 15:26:24;;;;;;;;;;;;;;;20.87;33.53;101411.78;5023263;28;20512;-68
2022/02/09 15:28:51;;;;;;;11.13;3.10;;;;;;;20.90;33.81;101408.28;5021358;28;20035;-69
2022/02/09 15:31:45;;;;;;;10.90;3.78;;;;;;;20.85;34.27;101405.59;5023526;28;20147;-68
2022/02/09 15:34:22;;;;;;;7.72;3.22;;;;;;;20.69;34.14;101391.03;5024384;28;20091;-68
2022/02/09 15:39:23;;;;;;;13.30;4.35;;;;;;;20.66;34.29;101402.22;5018787;28;20096;-69
2022/02/09 15:42:05;;;;;;;14.50;4.45;;;;;;;20.55;34.47;101391.16;5038415;28;20045;-68
2022/02/09 16:09:29;;;;;;;11.60;3.70;;;;;;;20.22;35.39;101399.13;5021932;28;20085;-68
2022/02/09 16:22:38;;;;;;;7.82;3.28;;;;;;;20.03;35.96;101398.50;5018487;28;20088;-69
2022/02/09 16:46:23;;;;;;;8.55;2.78;;;;;;;19.44;36.98;101404.22;5028545;28;20069;-69
2022/02/09 16:51:41;;;;;;;17.65;3.80;;;;;;;19.35;37.04;101394.78;5019374;28;20057;-68
2022/02/09 16:54:26;;;;;;;9.10;3.08;;;;;;;19.13;36.82;101359.63;5025250;28;20489;-68
2022/02/09 17:18:50;;;;;;;13.32;3.42;;;;;;;18.54;38.86;101420.88;5049355;28;20042;-68
2022/02/09 17:21:32;;;;;;;8.20;2.55;;;;;;;18.53;38.59;101424.00;5049718;28;20046;-71
2022/02/09 17:24:02;;;;;;;8.73;2.50;;;;;;;18.48;38.91;101414.47;5047857;28;20060;-70
2022/02/09 17:26:29;;;;;;;;;;;;;;;18.42;38.25;101414.88;5054593;28;20045;-68
2022/02/09 17:28:59;;;;;;;13.63;2.88;;;;;;;18.28;38.81;101394.25;5056525;28;19921;-69
2022/02/09 17:34:14;;;;;;;15.95;3.33;;;;;;;17.89;39.25;101364.47;5044954;28;20045;-69
2022/02/09 17:37:09;;;;;;;15.32;3.00;;;;;;;18.16;39.67;101432.34;5021758;28;20058;-70
2022/02/09 17:53:26;;;;;;;11.97;3.00;;;;;;;17.59;40.54;101442.03;5026199;28;20080;-72
2022/02/09 17:56:16;;;;;;;15.95;3.25;;;;;;;17.52;40.47;101434.78;5023905;28;20049;-72
2022/02/09 17:58:48;;;;;;;7.67;2.67;;;;;;;17.45;40.54;101433.50;5051740;28;20595;-70
2022/02/09 18:01:17;;;;;;;10.50;3.53;;;;;;;17.41;40.88;101438.09;5013966;28;20073;-70
2022/02/09 18:03:44;;;;;;;9.67;3.40;;;;;;;17.34;40.93;101432.00;5012354;28;20049;-68
2022/02/09 18:06:25;;;;;;;16.15;6.88;;;;;;;17.34;41.36;101434.81;5014187;28;20172;-69
2022/02/09 18:44:05;;;;;;;20.87;6.77;;;;;;;16.72;42.48;101448.88;5016559;28;20149;-71
2022/02/09 18:46:40;;;;;;;18.07;8.63;;;;;;;16.61;42.95;101430.34;5015655;28;20052;-71
2022/02/09 19:02:57;;;;;;;18.33;7.40;;;;;;;16.44;43.64;101436.47;5018088;28;20080;-70
2022/02/09 19:05:40;;;;;;;22.10;9.93;;;;;;;16.50;43.62;101446.56;5019273;28;20053;-69
2022/02/09 19:19:07;;;;;;;18.87;9.33;;;;;;;16.42;43.99;101489.50;5024636;28;20104;-70
2022/02/09 19:30:21;;;;;;;20.33;8.27;;;;;;;16.25;44.24;101485.16;5024996;28;20088;-69
2022/02/09 19:46:47;;;;;;;23.67;8.10;;;;;;;16.15;44.82;101492.84;5026198;28;20440;-69
2022/02/09 19:54:59;;;;;;;28.53;12.30;;;;;;;15.91;45.16;101470.25;5020802;28;20128;-69
2022/02/09 19:57:27;;;;;;;20.60;8.80;;;;;;;16.04;45.22;101489.28;5020489;28;20136;-70
2022/02/09 19:59:57;;;;;;;20.43;8.97;;;;;;;15.96;45.28;101487.09;5012023;28;20132;-69
2022/02/09 20:02:25;;;;;;;25.33;8.20;;;;;;;15.96;45.51;101487.09;5016087;28;20077;-70
2022/02/09 20:04:55;;;;;;;20.40;10.80;;;;;;;15.97;45.52;101489.63;5016208;28;20050;-72
2022/02/09 20:07:23;;;;;;;21.77;8.63;;;;;;;16.00;45.67;101483.41;5012867;28;20057;-69
2022/02/09 20:09:50;;;;;;;27.43;9.57;;;;;;;16.00;45.67;101493.81;5014799;28;20125;-70
2022/02/09 20:12:17;;;;;;;15.63;7.73;;;;;;;15.97;45.65;101486.81;5014878;28;20046;-70
2022/02/09 20:14:48;;;;;;;20.90;7.40;;;;;;;15.85;45.91;101473.09;5019177;28;20083;-71
2022/02/09 20:17:15;;;;;;;23.07;6.97;;;;;;;15.96;46.09;101501.16;5025845;28;20054;-70
2022/02/09 20:19:47;;;;;;;17.90;8.67;;;;;;;15.95;46.03;101496.69;5016931;28;20118;-70
2022/02/09 20:22:17;;;;;;;21.03;10.60;;;;;;;15.95;46.15;101502.31;5022167;28;20128;-72
2022/02/09 20:24:44;;;;;;;22.63;10.13;;;;;;;15.94;46.05;101495.84;5016089;28;20544;-75
2022/02/09 20:27:15;;;;;;;24.47;9.03;;;;;;;15.83;46.23;101472.56;5022571;28;20136;-71
2022/02/09 20:29:54;;;;;;;18.00;7.63;;;;;;;15.91;46.11;101485.16;5018659;28;20064;-69
2022/02/09 20:32:31;;;;;;;23.87;9.67;;;;;;;15.81;46.22;101480.44;5013359;28;20073;-74
2022/02/09 20:35:02;;;;;;;31.10;10.10;;;;;;;15.91;46.14;101484.31;5016634;28;20089;-74
2022/02/09 20:37:30;;;;;;;29.57;11.20;;;;;;;15.75;46.29;101475.97;5017701;28;20176;-71
2022/02/09 20:42:24;;;;;;;19.33;8.87;;;;;;;15.90;46.40;101499.53;5013436;28;20061;-81
2022/02/09 20:44:58;;;;;;;24.13;11.80;;;;;;;15.87;46.38;101490.53;5015737;28;20064;-82
2022/02/09 20:47:27;;;;;;;21.30;8.80;;;;;;;15.86;46.48;101493.63;5017461;28;20085;-78
2022/02/09 20:49:54;;;;;;;27.73;9.30;;;;;;;15.64;46.54;101463.91;5018581;28;20137;-83
2022/02/09 20:52:21;;;;;;;22.33;11.53;;;;;;;15.82;46.48;101499.03;5016302;28;20061;-68
2022/02/09 20:54:48;;;;;;;30.50;12.63;;;;;;;15.74;46.47;101496.84;5014511;28;20137;-77
2022/02/09 20:57:14;;;;;;;23.90;11.27;;;;;;;15.68;46.93;101500.81;5020064;28;20111;-83
2022/02/09 20:59:47;;;;;;;26.03;13.03;;;;;;;15.53;46.56;101484.00;5015395;28;20093;-76
2022/02/09 21:03:06;;;;;;;28.63;12.97;;;;;;;15.52;46.79;101490.75;5018449;28;20589;-76
2022/02/09 21:05:41;;;;;;;34.23;14.57;;;;;;;15.60;46.79;101518.31;5019694;28;20085;-79
2022/02/09 21:08:12;;;;;;;31.27;12.97;;;;;;;15.55;46.90;101504.25;5020573;28;20089;-79
2022/02/09 21:10:48;;;;;;;23.83;12.83;;;;;;;15.37;47.14;101486.06;5022183;28;20050;-80
2022/02/09 21:16:08;;;;;;;28.93;15.07;;;;;;;15.23;47.47;101474.59;5021773;28;20084;-76
2022/02/09 21:27:11;;;;;;;35.23;15.17;;;;;;;15.43;47.71;101500.94;5020161;28;20108;-75
2022/02/09 21:52:12;;;;;;;17.63;7.17;;;;;;;15.50;47.37;101496.69;5021481;28;20081;-75
2022/02/09 21:54:18;;;;;;;18.67;8.53;;;;;;;15.21;47.25;101442.25;5022090;28;20058;-75
2022/02/09 21:56:55;;;;;;;58.43;22.27;;;;;;;15.43;47.43;101475.63;5017402;28;20145;-75
2022/02/09 22:21:20;;;;;;;18.23;9.93;;;;;;;14.86;49.95;101469.41;5020441;28;20132;-74
2022/02/09 22:26:46;;;;;;;33.13;12.00;;;;;;;14.56;50.39;101443.09;5037120;28;20077;-79
2022/02/09 22:55:52;;;;;;;35.27;18.13;;;;;;;14.26;52.93;101457.19;5030518;28;20077;-76
2022/02/09 22:58:22;;;;;;;33.10;16.15;;;;;;;14.15;53.14;101442.31;5037354;28;20057;-74
2022/02/09 23:01:13;;;;;;;32.37;18.20;;;;;;;14.16;52.95;101438.38;5027770;28;20520;-74
2022/02/09 23:14:03;;;;;;;27.70;14.30;;;;;;;13.96;53.91;101461.72;5057544;28;20045;-74
